sensor_id;sensor_type;location;lat;lon;timestamp;temperature;humidity
51825;DHT22;37879;52.986;6.282;2023-11-19T00:01:40;11.50;99.90
51825;DHT22;37879;52.986;6.282;2023-11-19T00:04:06;11.50;99.90
51825;DHT22;37879;52.986;6.282;2023-11-19T00:06:32;11.50;99.90
51825;DHT22;37879;52.986;6.282;2023-11-19T00:08:58;11.60;99.90
51825;DHT22;37879;52.986;6.282;2023-11-19T00:11:23;11.60;99.90
51825;DHT22;37879;52.986;6.282;2023-11-19T00:13:49;11.60;99.90
51825;DHT22;37879;52.986;6.282;2023-11-19T00:16:15;11.60;99.90
51825;DHT22;37879;52.986;6.282;2023-11-19T00:18:41;11.70;99.90
51825;DHT22;37879;52.986;6.282;2023-11-19T00:21:07;11.70;99.90
51825;DHT22;37879;52.986;6.282;2023-11-19T00:23:36;11.70;99.90
51825;DHT22;37879;52.986;6.282;2023-11-19T00:26:02;11.70;99.90
51825;DHT22;37879;52.986;6.282;2023-11-19T00:28:32;11.80;99.90
51825;DHT22;37879;52.986;6.282;2023-11-19T00:30:58;11.80;99.90
51825;DHT22;37879;52.986;6.282;2023-11-19T00:33:24;11.80;99.90
51825;DHT22;37879;52.986;6.282;2023-11-19T00:35:50;11.80;99.90
51825;DHT22;37879;52.986;6.282;2023-11-19T00:38:16;11.70;99.90
51825;DHT22;37879;52.986;6.282;2023-11-19T00:40:41;11.80;99.90
51825;DHT22;37879;52.986;6.282;2023-11-19T00:43:07;11.80;99.90
51825;DHT22;37879;52.986;6.282;2023-11-19T00:45:33;11.70;99.90
51825;DHT22;37879;52.986;6.282;2023-11-19T00:47:58;11.80;99.90
51825;DHT22;37879;52.986;6.282;2023-11-19T00:50:25;11.80;99.90
51825;DHT22;37879;52.986;6.282;2023-11-19T00:52:50;11.80;99.90
51825;DHT22;37879;52.986;6.282;2023-11-19T00:55:17;11.80;99.90
51825;DHT22;37879;52.986;6.282;2023-11-19T00:57:43;11.70;99.90
51825;DHT22;37879;52.986;6.282;2023-11-19T01:00:09;11.80;99.90
51825;DHT22;37879;52.986;6.282;2023-11-19T01:02:45;11.70;99.90
51825;DHT22;37879;52.986;6.282;2023-11-19T01:05:11;11.80;99.90
51825;DHT22;37879;52.986;6.282;2023-11-19T01:07:39;11.60;99.90
51825;DHT22;37879;52.986;6.282;2023-11-19T01:10:05;11.70;99.90
51825;DHT22;37879;52.986;6.282;2023-11-19T01:12:32;11.70;99.90
51825;DHT22;37879;52.986;6.282;2023-11-19T01:14:58;11.70;99.90
51825;DHT22;37879;52.986;6.282;2023-11-19T01:17:24;11.70;99.90
51825;DHT22;37879;52.986;6.282;2023-11-19T01:19:49;11.60;99.90
51825;DHT22;37879;52.986;6.282;2023-11-19T01:22:15;11.70;99.90
51825;DHT22;37879;52.986;6.282;2023-11-19T01:24:41;11.60;99.90
51825;DHT22;37879;52.986;6.282;2023-11-19T01:27:07;11.60;99.90
51825;DHT22;37879;52.986;6.282;2023-11-19T01:29:33;11.70;99.90
51825;DHT22;37879;52.986;6.282;2023-11-19T01:31:59;11.70;99.90
51825;DHT22;37879;52.986;6.282;2023-11-19T01:34:25;11.70;99.90
51825;DHT22;37879;52.986;6.282;2023-11-19T01:36:50;11.60;99.90
51825;DHT22;37879;52.986;6.282;2023-11-19T01:39:16;11.60;99.90
51825;DHT22;37879;52.986;6.282;2023-11-19T01:41:42;11.60;99.90
51825;DHT22;37879;52.986;6.282;2023-11-19T01:44:08;11.60;99.90
51825;DHT22;37879;52.986;6.282;2023-11-19T01:46:34;11.60;99.90
51825;DHT22;37879;52.986;6.282;2023-11-19T01:49:02;11.60;99.90
51825;DHT22;37879;52.986;6.282;2023-11-19T01:51:28;11.50;99.90
51825;DHT22;37879;52.986;6.282;2023-11-19T01:53:54;11.60;99.90
51825;DHT22;37879;52.986;6.282;2023-11-19T01:56:21;11.50;99.90
51825;DHT22;37879;52.986;6.282;2023-11-19T01:58:48;11.60;99.90
51825;DHT22;37879;52.986;6.282;2023-11-19T02:01:15;11.60;99.90
51825;DHT22;37879;52.986;6.282;2023-11-19T02:03:40;11.50;99.90
51825;DHT22;37879;52.986;6.282;2023-11-19T02:06:07;11.50;99.90
51825;DHT22;37879;52.986;6.282;2023-11-19T02:08:32;11.50;99.90
51825;DHT22;37879;52.986;6.282;2023-11-19T02:10:58;11.50;99.90
51825;DHT22;37879;52.986;6.282;2023-11-19T02:13:25;11.50;99.90
51825;DHT22;37879;52.986;6.282;2023-11-19T02:15:51;11.60;99.90
51825;DHT22;37879;52.986;6.282;2023-11-19T02:18:25;11.50;99.90
51825;DHT22;37879;52.986;6.282;2023-11-19T02:20:56;11.50;99.90
51825;DHT22;37879;52.986;6.282;2023-11-19T02:23:23;11.50;99.90
51825;DHT22;37879;52.986;6.282;2023-11-19T02:28:45;11.60;99.90
51825;DHT22;37879;52.986;6.282;2023-11-19T02:31:11;11.50;99.90
51825;DHT22;37879;52.986;6.282;2023-11-19T02:33:38;11.50;99.90
51825;DHT22;37879;52.986;6.282;2023-11-19T02:36:07;11.60;99.90
51825;DHT22;37879;52.986;6.282;2023-11-19T02:38:37;11.50;99.90
51825;DHT22;37879;52.986;6.282;2023-11-19T02:41:06;11.50;99.90
51825;DHT22;37879;52.986;6.282;2023-11-19T02:43:33;11.50;99.90
51825;DHT22;37879;52.986;6.282;2023-11-19T02:46:05;11.60;99.90
51825;DHT22;37879;52.986;6.282;2023-11-19T02:48:34;11.50;99.90
51825;DHT22;37879;52.986;6.282;2023-11-19T02:51:04;11.50;99.90
51825;DHT22;37879;52.986;6.282;2023-11-19T02:53:30;11.60;99.90
51825;DHT22;37879;52.986;6.282;2023-11-19T02:55:57;11.50;99.90
51825;DHT22;37879;52.986;6.282;2023-11-19T02:58:37;12.00;99.90
51825;DHT22;37879;52.986;6.282;2023-11-19T03:01:04;11.50;99.90
51825;DHT22;37879;52.986;6.282;2023-11-19T03:03:36;11.50;99.90
51825;DHT22;37879;52.986;6.282;2023-11-19T03:06:06;11.50;99.90
51825;DHT22;37879;52.986;6.282;2023-11-19T03:08:34;11.50;99.90
51825;DHT22;37879;52.986;6.282;2023-11-19T03:11:00;11.50;99.90
51825;DHT22;37879;52.986;6.282;2023-11-19T03:13:26;11.50;99.90
51825;DHT22;37879;52.986;6.282;2023-11-19T03:15:52;11.50;99.90
51825;DHT22;37879;52.986;6.282;2023-11-19T03:18:20;11.60;99.90
51825;DHT22;37879;52.986;6.282;2023-11-19T03:20:49;11.50;99.90
51825;DHT22;37879;52.986;6.282;2023-11-19T03:23:15;11.60;99.90
51825;DHT22;37879;52.986;6.282;2023-11-19T03:25:41;11.50;99.90
51825;DHT22;37879;52.986;6.282;2023-11-19T03:28:06;11.50;99.90
51825;DHT22;37879;52.986;6.282;2023-11-19T03:30:32;11.50;99.90
51825;DHT22;37879;52.986;6.282;2023-11-19T03:32:58;11.50;99.90
51825;DHT22;37879;52.986;6.282;2023-11-19T03:35:25;11.50;99.90
51825;DHT22;37879;52.986;6.282;2023-11-19T03:37:51;11.50;99.90
51825;DHT22;37879;52.986;6.282;2023-11-19T03:40:17;11.50;99.90
51825;DHT22;37879;52.986;6.282;2023-11-19T03:42:44;11.50;99.90
51825;DHT22;37879;52.986;6.282;2023-11-19T03:45:10;11.50;99.90
51825;DHT22;37879;52.986;6.282;2023-11-19T03:47:36;11.40;99.90
51825;DHT22;37879;52.986;6.282;2023-11-19T03:50:03;11.50;99.90
51825;DHT22;37879;52.986;6.282;2023-11-19T03:52:29;11.40;99.90
51825;DHT22;37879;52.986;6.282;2023-11-19T03:54:55;11.70;99.90
51825;DHT22;37879;52.986;6.282;2023-11-19T03:57:22;11.40;99.90
51825;DHT22;37879;52.986;6.282;2023-11-19T03:59:48;11.40;99.90
51825;DHT22;37879;52.986;6.282;2023-11-19T04:02:15;11.40;99.90
51825;DHT22;37879;52.986;6.282;2023-11-19T04:04:41;11.30;99.90
51825;DHT22;37879;52.986;6.282;2023-11-19T04:07:07;11.30;99.90
51825;DHT22;37879;52.986;6.282;2023-11-19T04:09:32;11.40;99.90
51825;DHT22;37879;52.986;6.282;2023-11-19T04:11:59;11.40;99.90
51825;DHT22;37879;52.986;6.282;2023-11-19T04:14:26;11.30;99.90
51825;DHT22;37879;52.986;6.282;2023-11-19T04:16:52;11.40;99.90
51825;DHT22;37879;52.986;6.282;2023-11-19T04:19:21;11.30;99.90
51825;DHT22;37879;52.986;6.282;2023-11-19T04:21:47;11.30;99.90
51825;DHT22;37879;52.986;6.282;2023-11-19T04:24:13;11.30;99.90
51825;DHT22;37879;52.986;6.282;2023-11-19T04:26:46;11.20;99.90
51825;DHT22;37879;52.986;6.282;2023-11-19T04:29:16;11.20;99.90
51825;DHT22;37879;52.986;6.282;2023-11-19T04:31:45;11.20;99.90
51825;DHT22;37879;52.986;6.282;2023-11-19T04:34:11;11.20;99.90
51825;DHT22;37879;52.986;6.282;2023-11-19T04:36:37;11.10;99.90
51825;DHT22;37879;52.986;6.282;2023-11-19T04:39:03;11.10;99.90
51825;DHT22;37879;52.986;6.282;2023-11-19T04:41:50;11.10;99.90
51825;DHT22;37879;52.986;6.282;2023-11-19T04:44:19;11.10;99.90
51825;DHT22;37879;52.986;6.282;2023-11-19T04:46:46;11.10;99.90
51825;DHT22;37879;52.986;6.282;2023-11-19T04:49:12;11.30;99.90
51825;DHT22;37879;52.986;6.282;2023-11-19T04:51:43;11.10;99.90
51825;DHT22;37879;52.986;6.282;2023-11-19T04:54:10;11.10;99.90
51825;DHT22;37879;52.986;6.282;2023-11-19T04:56:36;11.10;99.90
51825;DHT22;37879;52.986;6.282;2023-11-19T04:59:06;11.10;99.90
51825;DHT22;37879;52.986;6.282;2023-11-19T05:01:35;11.10;99.90
51825;DHT22;37879;52.986;6.282;2023-11-19T05:04:01;11.10;99.90
51825;DHT22;37879;52.986;6.282;2023-11-19T05:06:31;11.10;99.90
51825;DHT22;37879;52.986;6.282;2023-11-19T05:08:59;11.20;99.90
51825;DHT22;37879;52.986;6.282;2023-11-19T05:11:26;11.20;99.90
51825;DHT22;37879;52.986;6.282;2023-11-19T05:13:54;11.10;99.90
51825;DHT22;37879;52.986;6.282;2023-11-19T05:16:19;11.10;99.90
51825;DHT22;37879;52.986;6.282;2023-11-19T05:18:46;11.20;99.90
51825;DHT22;37879;52.986;6.282;2023-11-19T05:21:12;11.10;99.90
51825;DHT22;37879;52.986;6.282;2023-11-19T05:23:38;11.10;99.90
51825;DHT22;37879;52.986;6.282;2023-11-19T05:26:04;11.10;99.90
51825;DHT22;37879;52.986;6.282;2023-11-19T05:28:30;11.10;99.90
51825;DHT22;37879;52.986;6.282;2023-11-19T05:30:56;11.10;99.90
51825;DHT22;37879;52.986;6.282;2023-11-19T05:33:22;11.10;99.90
51825;DHT22;37879;52.986;6.282;2023-11-19T05:35:47;11.10;99.90
51825;DHT22;37879;52.986;6.282;2023-11-19T05:38:13;11.10;99.90
51825;DHT22;37879;52.986;6.282;2023-11-19T05:40:40;11.10;99.90
51825;DHT22;37879;52.986;6.282;2023-11-19T05:43:06;11.10;99.90
51825;DHT22;37879;52.986;6.282;2023-11-19T05:45:32;11.10;99.90
51825;DHT22;37879;52.986;6.282;2023-11-19T05:47:58;11.60;99.90
51825;DHT22;37879;52.986;6.282;2023-11-19T05:50:24;11.10;99.90
51825;DHT22;37879;52.986;6.282;2023-11-19T05:52:50;11.10;99.90
51825;DHT22;37879;52.986;6.282;2023-11-19T05:55:15;11.10;99.90
51825;DHT22;37879;52.986;6.282;2023-11-19T05:57:41;11.10;99.90
51825;DHT22;37879;52.986;6.282;2023-11-19T06:00:08;11.00;99.90
51825;DHT22;37879;52.986;6.282;2023-11-19T06:02:34;11.00;99.90
51825;DHT22;37879;52.986;6.282;2023-11-19T06:05:00;10.90;99.90
51825;DHT22;37879;52.986;6.282;2023-11-19T06:07:27;10.90;99.90
51825;DHT22;37879;52.986;6.282;2023-11-19T06:09:53;11.00;99.90
51825;DHT22;37879;52.986;6.282;2023-11-19T06:12:19;10.90;99.90
51825;DHT22;37879;52.986;6.282;2023-11-19T06:14:45;10.80;99.90
51825;DHT22;37879;52.986;6.282;2023-11-19T06:17:10;10.90;99.90
51825;DHT22;37879;52.986;6.282;2023-11-19T06:19:37;10.90;99.90
51825;DHT22;37879;52.986;6.282;2023-11-19T06:22:03;10.90;99.90
51825;DHT22;37879;52.986;6.282;2023-11-19T06:24:29;10.90;99.90
51825;DHT22;37879;52.986;6.282;2023-11-19T06:26:55;10.90;99.90
51825;DHT22;37879;52.986;6.282;2023-11-19T06:29:21;10.90;99.90
51825;DHT22;37879;52.986;6.282;2023-11-19T06:31:46;10.90;99.90
51825;DHT22;37879;52.986;6.282;2023-11-19T06:34:14;11.00;99.90
51825;DHT22;37879;52.986;6.282;2023-11-19T06:36:40;11.60;99.90
51825;DHT22;37879;52.986;6.282;2023-11-19T06:39:06;11.20;99.90
51825;DHT22;37879;52.986;6.282;2023-11-19T06:41:31;11.00;99.90
51825;DHT22;37879;52.986;6.282;2023-11-19T06:43:57;11.00;99.90
51825;DHT22;37879;52.986;6.282;2023-11-19T06:46:23;11.10;99.90
51825;DHT22;37879;52.986;6.282;2023-11-19T06:48:48;11.00;99.90
51825;DHT22;37879;52.986;6.282;2023-11-19T06:51:14;11.10;99.90
51825;DHT22;37879;52.986;6.282;2023-11-19T06:53:42;11.10;99.90
51825;DHT22;37879;52.986;6.282;2023-11-19T06:56:23;11.10;99.90
51825;DHT22;37879;52.986;6.282;2023-11-19T06:58:49;11.10;99.90
51825;DHT22;37879;52.986;6.282;2023-11-19T07:01:15;11.10;99.90
51825;DHT22;37879;52.986;6.282;2023-11-19T07:03:42;11.10;99.90
51825;DHT22;37879;52.986;6.282;2023-11-19T07:06:07;11.10;99.90
51825;DHT22;37879;52.986;6.282;2023-11-19T07:08:34;11.10;99.90
51825;DHT22;37879;52.986;6.282;2023-11-19T07:11:00;11.10;99.90
51825;DHT22;37879;52.986;6.282;2023-11-19T07:13:25;11.10;99.90
51825;DHT22;37879;52.986;6.282;2023-11-19T07:15:55;11.00;99.90
51825;DHT22;37879;52.986;6.282;2023-11-19T07:18:21;11.00;99.90
51825;DHT22;37879;52.986;6.282;2023-11-19T07:20:48;11.00;99.90
51825;DHT22;37879;52.986;6.282;2023-11-19T07:23:14;11.00;99.90
51825;DHT22;37879;52.986;6.282;2023-11-19T07:25:43;11.00;99.90
51825;DHT22;37879;52.986;6.282;2023-11-19T07:28:09;11.00;99.90
51825;DHT22;37879;52.986;6.282;2023-11-19T07:30:35;11.00;99.90
51825;DHT22;37879;52.986;6.282;2023-11-19T07:33:01;11.00;99.90
51825;DHT22;37879;52.986;6.282;2023-11-19T07:35:29;11.00;99.90
51825;DHT22;37879;52.986;6.282;2023-11-19T07:37:56;11.00;99.90
51825;DHT22;37879;52.986;6.282;2023-11-19T07:40:23;10.90;99.90
51825;DHT22;37879;52.986;6.282;2023-11-19T07:42:49;10.90;99.90
51825;DHT22;37879;52.986;6.282;2023-11-19T07:45:15;10.90;99.90
51825;DHT22;37879;52.986;6.282;2023-11-19T07:47:42;10.90;99.90
51825;DHT22;37879;52.986;6.282;2023-11-19T07:50:10;10.90;99.90
51825;DHT22;37879;52.986;6.282;2023-11-19T07:52:37;10.90;99.90
51825;DHT22;37879;52.986;6.282;2023-11-19T07:55:03;10.90;99.90
51825;DHT22;37879;52.986;6.282;2023-11-19T07:57:28;10.90;99.90
51825;DHT22;37879;52.986;6.282;2023-11-19T07:59:59;11.00;99.90
51825;DHT22;37879;52.986;6.282;2023-11-19T08:02:25;11.00;99.90
51825;DHT22;37879;52.986;6.282;2023-11-19T08:04:51;11.00;99.90
51825;DHT22;37879;52.986;6.282;2023-11-19T08:07:18;11.00;99.90
51825;DHT22;37879;52.986;6.282;2023-11-19T08:09:44;11.10;99.90
51825;DHT22;37879;52.986;6.282;2023-11-19T08:12:10;11.10;99.90
51825;DHT22;37879;52.986;6.282;2023-11-19T08:14:36;11.20;99.90
51825;DHT22;37879;52.986;6.282;2023-11-19T08:17:02;11.20;99.90
51825;DHT22;37879;52.986;6.282;2023-11-19T08:19:28;11.20;99.90
51825;DHT22;37879;52.986;6.282;2023-11-19T08:21:54;11.20;99.90
51825;DHT22;37879;52.986;6.282;2023-11-19T08:24:20;11.20;99.90
51825;DHT22;37879;52.986;6.282;2023-11-19T08:26:45;11.60;99.90
51825;DHT22;37879;52.986;6.282;2023-11-19T08:29:11;11.20;99.90
51825;DHT22;37879;52.986;6.282;2023-11-19T08:31:37;11.20;99.90
51825;DHT22;37879;52.986;6.282;2023-11-19T08:34:02;11.20;99.90
51825;DHT22;37879;52.986;6.282;2023-11-19T08:36:28;11.20;99.90
51825;DHT22;37879;52.986;6.282;2023-11-19T08:38:54;11.40;99.90
51825;DHT22;37879;52.986;6.282;2023-11-19T08:41:21;11.20;99.90
51825;DHT22;37879;52.986;6.282;2023-11-19T08:43:47;11.20;99.90
51825;DHT22;37879;52.986;6.282;2023-11-19T08:46:12;11.20;99.90
51825;DHT22;37879;52.986;6.282;2023-11-19T08:48:39;11.20;99.90
51825;DHT22;37879;52.986;6.282;2023-11-19T08:51:05;11.20;99.90
51825;DHT22;37879;52.986;6.282;2023-11-19T08:53:31;11.20;99.90
51825;DHT22;37879;52.986;6.282;2023-11-19T08:55:57;11.20;99.90
51825;DHT22;37879;52.986;6.282;2023-11-19T08:58:22;11.20;99.90
51825;DHT22;37879;52.986;6.282;2023-11-19T09:00:48;11.10;99.90
51825;DHT22;37879;52.986;6.282;2023-11-19T09:03:13;11.20;99.90
51825;DHT22;37879;52.986;6.282;2023-11-19T09:05:39;11.20;99.90
51825;DHT22;37879;52.986;6.282;2023-11-19T09:08:06;11.20;99.90
51825;DHT22;37879;52.986;6.282;2023-11-19T09:10:32;11.40;99.90
51825;DHT22;37879;52.986;6.282;2023-11-19T09:12:58;11.20;99.90
51825;DHT22;37879;52.986;6.282;2023-11-19T09:15:23;11.20;99.90
51825;DHT22;37879;52.986;6.282;2023-11-19T09:17:49;11.20;99.90
51825;DHT22;37879;52.986;6.282;2023-11-19T09:20:15;11.30;99.90
51825;DHT22;37879;52.986;6.282;2023-11-19T09:22:41;11.60;99.90
51825;DHT22;37879;52.986;6.282;2023-11-19T09:25:07;11.40;99.90
51825;DHT22;37879;52.986;6.282;2023-11-19T09:27:35;11.40;99.90
51825;DHT22;37879;52.986;6.282;2023-11-19T09:30:00;11.50;99.90
51825;DHT22;37879;52.986;6.282;2023-11-19T09:32:26;11.50;99.90
51825;DHT22;37879;52.986;6.282;2023-11-19T09:34:52;11.50;99.90
51825;DHT22;37879;52.986;6.282;2023-11-19T09:37:17;11.60;99.90
51825;DHT22;37879;52.986;6.282;2023-11-19T09:39:43;11.60;99.90
51825;DHT22;37879;52.986;6.282;2023-11-19T09:42:09;11.60;99.90
51825;DHT22;37879;52.986;6.282;2023-11-19T09:44:37;11.70;99.90
51825;DHT22;37879;52.986;6.282;2023-11-19T09:47:04;11.60;99.90
51825;DHT22;37879;52.986;6.282;2023-11-19T09:49:31;11.70;99.90
51825;DHT22;37879;52.986;6.282;2023-11-19T09:51:56;11.70;99.90
51825;DHT22;37879;52.986;6.282;2023-11-19T09:54:23;11.70;99.90
51825;DHT22;37879;52.986;6.282;2023-11-19T09:56:48;11.80;99.90
51825;DHT22;37879;52.986;6.282;2023-11-19T09:59:15;12.40;99.90
51825;DHT22;37879;52.986;6.282;2023-11-19T10:01:41;11.70;99.90
51825;DHT22;37879;52.986;6.282;2023-11-19T10:04:09;11.70;99.90
51825;DHT22;37879;52.986;6.282;2023-11-19T10:06:35;11.80;99.90
51825;DHT22;37879;52.986;6.282;2023-11-19T10:09:01;11.80;99.90
51825;DHT22;37879;52.986;6.282;2023-11-19T10:11:27;11.80;99.90
51825;DHT22;37879;52.986;6.282;2023-11-19T10:13:53;11.80;99.90
51825;DHT22;37879;52.986;6.282;2023-11-19T10:16:19;11.90;99.90
51825;DHT22;37879;52.986;6.282;2023-11-19T10:18:46;11.80;99.90
51825;DHT22;37879;52.986;6.282;2023-11-19T10:21:13;11.80;99.90
51825;DHT22;37879;52.986;6.282;2023-11-19T10:23:57;11.70;99.90
51825;DHT22;37879;52.986;6.282;2023-11-19T10:26:26;12.90;99.90
51825;DHT22;37879;52.986;6.282;2023-11-19T10:28:52;11.70;99.90
51825;DHT22;37879;52.986;6.282;2023-11-19T10:31:20;11.70;99.90
51825;DHT22;37879;52.986;6.282;2023-11-19T10:33:50;11.70;99.90
51825;DHT22;37879;52.986;6.282;2023-11-19T10:36:17;11.60;99.90
51825;DHT22;37879;52.986;6.282;2023-11-19T10:38:56;11.50;99.90
51825;DHT22;37879;52.986;6.282;2023-11-19T10:41:32;11.50;99.90
51825;DHT22;37879;52.986;6.282;2023-11-19T10:43:58;11.50;99.90
51825;DHT22;37879;52.986;6.282;2023-11-19T10:46:37;11.60;99.90
51825;DHT22;37879;52.986;6.282;2023-11-19T10:49:03;11.60;99.90
51825;DHT22;37879;52.986;6.282;2023-11-19T10:51:30;11.60;99.90
51825;DHT22;37879;52.986;6.282;2023-11-19T10:54:03;11.60;99.90
51825;DHT22;37879;52.986;6.282;2023-11-19T10:56:32;11.60;99.90
51825;DHT22;37879;52.986;6.282;2023-11-19T10:58:59;11.60;99.90
51825;DHT22;37879;52.986;6.282;2023-11-19T11:01:39;11.60;99.90
51825;DHT22;37879;52.986;6.282;2023-11-19T11:04:10;11.60;99.90
51825;DHT22;37879;52.986;6.282;2023-11-19T11:06:39;11.70;99.90
51825;DHT22;37879;52.986;6.282;2023-11-19T11:09:06;11.70;99.90
51825;DHT22;37879;52.986;6.282;2023-11-19T11:11:38;11.70;99.90
51825;DHT22;37879;52.986;6.282;2023-11-19T11:14:05;11.70;99.90
51825;DHT22;37879;52.986;6.282;2023-11-19T11:16:31;11.80;99.90
51825;DHT22;37879;52.986;6.282;2023-11-19T11:18:58;11.90;99.90
51825;DHT22;37879;52.986;6.282;2023-11-19T11:21:26;11.80;99.90
51825;DHT22;37879;52.986;6.282;2023-11-19T11:37:39;12.00;99.90
51825;DHT22;37879;52.986;6.282;2023-11-19T11:40:05;12.10;99.90
51825;DHT22;37879;52.986;6.282;2023-11-19T11:42:36;12.10;99.90
51825;DHT22;37879;52.986;6.282;2023-11-19T11:45:12;12.10;99.90
51825;DHT22;37879;52.986;6.282;2023-11-19T11:50:13;12.20;99.90
51825;DHT22;37879;52.986;6.282;2023-11-19T11:55:36;12.20;99.90
51825;DHT22;37879;52.986;6.282;2023-11-19T11:58:02;12.30;99.90
51825;DHT22;37879;52.986;6.282;2023-11-19T12:03:01;12.30;99.90
51825;DHT22;37879;52.986;6.282;2023-11-19T12:05:27;12.30;99.90
51825;DHT22;37879;52.986;6.282;2023-11-19T12:07:58;12.30;99.90
51825;DHT22;37879;52.986;6.282;2023-11-19T12:10:25;12.30;99.90
51825;DHT22;37879;52.986;6.282;2023-11-19T12:12:58;12.30;99.90
51825;DHT22;37879;52.986;6.282;2023-11-19T12:15:24;12.30;99.90
51825;DHT22;37879;52.986;6.282;2023-11-19T12:17:52;12.30;99.90
51825;DHT22;37879;52.986;6.282;2023-11-19T12:20:22;12.30;99.90
51825;DHT22;37879;52.986;6.282;2023-11-19T12:22:48;12.30;99.90
51825;DHT22;37879;52.986;6.282;2023-11-19T12:25:15;12.30;99.90
51825;DHT22;37879;52.986;6.282;2023-11-19T12:27:49;12.30;99.90
51825;DHT22;37879;52.986;6.282;2023-11-19T12:30:26;12.30;99.90
51825;DHT22;37879;52.986;6.282;2023-11-19T12:32:53;12.30;99.90
51825;DHT22;37879;52.986;6.282;2023-11-19T12:35:22;12.30;99.90
51825;DHT22;37879;52.986;6.282;2023-11-19T12:37:49;12.30;99.90
51825;DHT22;37879;52.986;6.282;2023-11-19T12:40:23;12.40;99.90
51825;DHT22;37879;52.986;6.282;2023-11-19T12:42:50;12.40;99.90
51825;DHT22;37879;52.986;6.282;2023-11-19T12:45:16;12.40;99.90
51825;DHT22;37879;52.986;6.282;2023-11-19T12:47:43;12.40;99.90
51825;DHT22;37879;52.986;6.282;2023-11-19T12:50:10;12.50;99.90
51825;DHT22;37879;52.986;6.282;2023-11-19T12:52:36;12.50;99.90
51825;DHT22;37879;52.986;6.282;2023-11-19T12:55:04;12.50;99.90
51825;DHT22;37879;52.986;6.282;2023-11-19T12:57:41;12.50;99.90
51825;DHT22;37879;52.986;6.282;2023-11-19T13:00:17;12.40;99.90
51825;DHT22;37879;52.986;6.282;2023-11-19T13:02:46;12.40;99.90
51825;DHT22;37879;52.986;6.282;2023-11-19T13:05:30;12.40;99.90
51825;DHT22;37879;52.986;6.282;2023-11-19T13:08:05;12.40;99.90
51825;DHT22;37879;52.986;6.282;2023-11-19T13:10:33;12.30;99.90
51825;DHT22;37879;52.986;6.282;2023-11-19T13:13:03;12.30;99.90
51825;DHT22;37879;52.986;6.282;2023-11-19T13:15:29;12.30;99.90
51825;DHT22;37879;52.986;6.282;2023-11-19T13:17:55;12.30;99.90
51825;DHT22;37879;52.986;6.282;2023-11-19T13:20:21;12.30;99.90
51825;DHT22;37879;52.986;6.282;2023-11-19T13:23:01;12.30;99.90
51825;DHT22;37879;52.986;6.282;2023-11-19T13:25:28;12.30;99.90
51825;DHT22;37879;52.986;6.282;2023-11-19T13:27:54;12.30;99.90
51825;DHT22;37879;52.986;6.282;2023-11-19T13:30:21;12.30;99.90
51825;DHT22;37879;52.986;6.282;2023-11-19T13:32:48;11.30;99.90
51825;DHT22;37879;52.986;6.282;2023-11-19T13:35:13;12.30;99.90
51825;DHT22;37879;52.986;6.282;2023-11-19T13:37:40;12.20;99.90
51825;DHT22;37879;52.986;6.282;2023-11-19T13:40:09;12.20;99.90
51825;DHT22;37879;52.986;6.282;2023-11-19T13:42:38;12.20;99.90
51825;DHT22;37879;52.986;6.282;2023-11-19T13:45:11;12.20;99.90
51825;DHT22;37879;52.986;6.282;2023-11-19T13:47:43;12.20;99.90
51825;DHT22;37879;52.986;6.282;2023-11-19T13:50:14;12.10;99.90
51825;DHT22;37879;52.986;6.282;2023-11-19T13:52:41;12.30;99.90
51825;DHT22;37879;52.986;6.282;2023-11-19T13:55:08;12.10;99.90
51825;DHT22;37879;52.986;6.282;2023-11-19T13:57:35;12.10;99.90
51825;DHT22;37879;52.986;6.282;2023-11-19T14:00:03;12.00;99.90
51825;DHT22;37879;52.986;6.282;2023-11-19T14:02:34;12.10;99.90
51825;DHT22;37879;52.986;6.282;2023-11-19T14:04:59;12.10;99.90
51825;DHT22;37879;52.986;6.282;2023-11-19T14:07:25;12.10;99.90
51825;DHT22;37879;52.986;6.282;2023-11-19T14:09:51;12.10;99.90
51825;DHT22;37879;52.986;6.282;2023-11-19T14:12:16;12.00;99.90
51825;DHT22;37879;52.986;6.282;2023-11-19T14:14:43;12.10;99.90
51825;DHT22;37879;52.986;6.282;2023-11-19T14:17:09;12.00;99.90
51825;DHT22;37879;52.986;6.282;2023-11-19T14:19:36;12.00;99.90
51825;DHT22;37879;52.986;6.282;2023-11-19T14:22:02;12.00;99.90
51825;DHT22;37879;52.986;6.282;2023-11-19T14:24:28;12.00;99.90
51825;DHT22;37879;52.986;6.282;2023-11-19T14:26:53;12.00;99.90
51825;DHT22;37879;52.986;6.282;2023-11-19T14:29:19;12.00;99.90
51825;DHT22;37879;52.986;6.282;2023-11-19T14:31:45;11.90;99.90
51825;DHT22;37879;52.986;6.282;2023-11-19T14:34:10;12.00;99.90
51825;DHT22;37879;52.986;6.282;2023-11-19T14:36:36;11.90;99.90
51825;DHT22;37879;52.986;6.282;2023-11-19T14:39:02;11.90;99.90
51825;DHT22;37879;52.986;6.282;2023-11-19T14:41:29;11.90;99.90
51825;DHT22;37879;52.986;6.282;2023-11-19T14:43:54;12.00;99.90
51825;DHT22;37879;52.986;6.282;2023-11-19T14:46:20;11.90;99.90
51825;DHT22;37879;52.986;6.282;2023-11-19T14:48:46;12.30;99.90
51825;DHT22;37879;52.986;6.282;2023-11-19T14:51:12;11.80;99.90
51825;DHT22;37879;52.986;6.282;2023-11-19T14:53:38;11.80;99.90
51825;DHT22;37879;52.986;6.282;2023-11-19T14:56:04;11.80;99.90
51825;DHT22;37879;52.986;6.282;2023-11-19T14:58:32;11.80;99.90
51825;DHT22;37879;52.986;6.282;2023-11-19T15:00:58;11.80;99.90
51825;DHT22;37879;52.986;6.282;2023-11-19T15:03:23;11.70;99.90
51825;DHT22;37879;52.986;6.282;2023-11-19T15:05:49;11.70;99.90
51825;DHT22;37879;52.986;6.282;2023-11-19T15:08:16;11.70;99.90
51825;DHT22;37879;52.986;6.282;2023-11-19T15:10:42;11.80;99.90
51825;DHT22;37879;52.986;6.282;2023-11-19T15:13:10;11.60;99.90
51825;DHT22;37879;52.986;6.282;2023-11-19T15:15:35;11.50;99.90
51825;DHT22;37879;52.986;6.282;2023-11-19T15:18:01;11.40;99.90
51825;DHT22;37879;52.986;6.282;2023-11-19T15:20:27;11.30;99.90
51825;DHT22;37879;52.986;6.282;2023-11-19T15:22:56;11.30;99.90
51825;DHT22;37879;52.986;6.282;2023-11-19T15:25:21;11.30;99.90
51825;DHT22;37879;52.986;6.282;2023-11-19T15:27:48;11.20;99.90
51825;DHT22;37879;52.986;6.282;2023-11-19T15:30:14;11.20;99.90
51825;DHT22;37879;52.986;6.282;2023-11-19T15:32:41;11.20;99.90
51825;DHT22;37879;52.986;6.282;2023-11-19T15:35:08;11.20;99.90
51825;DHT22;37879;52.986;6.282;2023-11-19T15:37:35;11.20;99.90
51825;DHT22;37879;52.986;6.282;2023-11-19T15:40:01;11.10;99.90
51825;DHT22;37879;52.986;6.282;2023-11-19T15:42:36;11.10;99.90
51825;DHT22;37879;52.986;6.282;2023-11-19T15:45:02;11.10;99.90
51825;DHT22;37879;52.986;6.282;2023-11-19T15:47:30;11.10;99.90
51825;DHT22;37879;52.986;6.282;2023-11-19T15:49:56;11.00;99.90
51825;DHT22;37879;52.986;6.282;2023-11-19T15:52:22;11.00;99.90
51825;DHT22;37879;52.986;6.282;2023-11-19T15:54:48;11.00;99.90